createdAt,value
2023-02-02T00:01:25.408Z,100333.50
2023-02-02T00:03:55.849Z,100325.88
2023-02-02T00:06:25.095Z,100348.19
2023-02-02T00:08:53.227Z,100344.59
2023-02-02T00:11:20.853Z,100334.19
2023-02-02T00:13:48.496Z,100330.56
2023-02-02T00:16:43.194Z,100330.44
2023-02-02T00:19:14.929Z,100327.13
2023-02-02T00:21:43.241Z,100330.56
2023-02-02T00:24:12.836Z,100324.63
2023-02-02T00:26:41.862Z,100336.81
2023-02-02T00:29:15.224Z,100319.47
2023-02-02T00:31:42.997Z,100331.41
2023-02-02T00:34:12.903Z,100332.38
2023-02-02T00:36:40.710Z,100343.47
2023-02-02T00:39:08.991Z,100330.44
2023-02-02T00:41:36.621Z,100332.09
2023-02-02T00:44:22.054Z,100335.44
2023-02-02T00:46:49.677Z,100322.13
2023-02-02T00:49:18.702Z,100327.13
2023-02-02T00:51:46.336Z,100330.84
2023-02-02T00:54:14.250Z,100342.09
2023-02-02T00:56:41.949Z,100343.78
2023-02-02T00:59:09.676Z,100344.47
2023-02-02T01:01:37.639Z,100339.22
2023-02-02T01:04:05.389Z,100352.09
2023-02-02T01:06:34.352Z,100342.28
2023-02-02T01:09:02.065Z,100354.72
2023-02-02T01:11:31.032Z,100349.47
2023-02-02T01:13:59.064Z,100346.56
2023-02-02T01:16:26.885Z,100363.47
2023-02-02T01:19:19.322Z,100343.50
2023-02-02T01:21:48.431Z,100346.56
2023-02-02T01:24:16.056Z,100352.81
2023-02-02T01:26:43.819Z,100366.66
2023-02-02T01:29:12.104Z,100357.25
2023-02-02T01:34:25.069Z,100364.31
2023-02-02T01:36:54.002Z,100373.34
2023-02-02T01:39:21.565Z,100365.69
2023-02-02T01:41:49.611Z,100376.09
2023-02-02T01:45:15.582Z,100377.66
2023-02-02T01:47:46.957Z,100373.47
2023-02-02T01:50:16.911Z,100378.84
2023-02-02T01:52:49.830Z,100370.28
2023-02-02T01:55:21.241Z,100373.47
2023-02-02T01:57:55.653Z,100380.13
2023-02-02T02:00:27.088Z,100369.03
2023-02-02T02:02:59.802Z,100372.63
2023-02-02T02:05:31.235Z,100370.28
2023-02-02T02:08:06.884Z,100369.03
2023-02-02T02:10:34.905Z,100370.72
2023-02-02T02:13:02.650Z,100371.53
2023-02-02T02:15:51.518Z,100367.25
2023-02-02T02:18:38.552Z,100359.03
2023-02-02T02:22:05.746Z,100369.03
2023-02-02T02:25:25.153Z,100369.28
2023-02-02T02:28:29.931Z,100369.44
2023-02-02T02:31:24.294Z,100363.91
2023-02-02T02:34:01.093Z,100376.50
2023-02-02T02:36:36.183Z,100372.19
2023-02-02T02:39:16.747Z,100374.25
2023-02-02T02:41:49.226Z,100371.78
2023-02-02T02:44:19.188Z,100376.75
2023-02-02T02:46:48.110Z,100370.22
2023-02-02T02:49:18.231Z,100360.28
2023-02-02T02:51:48.718Z,100363.16
2023-02-02T02:54:20.997Z,100364.97
2023-02-02T02:56:59.904Z,100362.50
2023-02-02T02:59:38.264Z,100364.66
2023-02-02T03:02:18.774Z,100370.63
2023-02-02T03:04:56.912Z,100370.09
2023-02-02T03:07:32.427Z,100367.34
2023-02-02T03:10:01.753Z,100362.06
2023-02-02T03:12:29.623Z,100346.53
2023-02-02T03:14:57.194Z,100361.25
2023-02-02T03:17:24.969Z,100347.13
2023-02-02T03:19:53.936Z,100354.44
2023-02-02T03:22:21.520Z,100355.69
2023-02-02T03:24:49.111Z,100351.09
2023-02-02T03:27:16.785Z,100350.97
2023-02-02T03:29:44.447Z,100358.84
2023-02-02T03:32:12.219Z,100361.25
2023-02-02T03:34:39.836Z,100347.78
2023-02-02T03:37:08.831Z,100346.28
2023-02-02T03:39:36.406Z,100325.34
2023-02-02T03:42:03.946Z,100340.44
2023-02-02T03:44:31.617Z,100343.91
2023-02-02T03:46:59.179Z,100349.03
2023-02-02T03:49:26.830Z,100350.97
2023-02-02T03:51:54.602Z,100360.53
2023-02-02T03:54:23.676Z,100360.97
2023-02-02T03:56:51.186Z,100360.00
2023-02-02T03:59:18.763Z,100367.50
2023-02-02T04:01:46.340Z,100374.13
2023-02-02T04:04:14.014Z,100368.72
2023-02-02T04:06:41.609Z,100378.19
2023-02-02T04:09:09.330Z,100378.97
2023-02-02T04:11:39.387Z,100380.81
2023-02-02T04:14:07.687Z,100385.25
2023-02-02T04:16:37.563Z,100397.59
2023-02-02T04:19:05.432Z,100386.41
2023-02-02T04:21:33.247Z,100397.19
2023-02-02T04:24:01.042Z,100409.28
2023-02-02T04:26:28.780Z,100395.97
2023-02-02T04:28:57.752Z,100396.94
2023-02-02T04:31:25.704Z,100401.91
2023-02-02T04:33:53.289Z,100408.31
2023-02-02T04:36:20.940Z,100417.16
2023-02-02T04:38:50.317Z,100412.88
2023-02-02T04:41:18.721Z,100421.19
2023-02-02T04:43:47.037Z,100426.63
2023-02-02T04:46:16.143Z,100421.72
2023-02-02T04:48:43.931Z,100427.59
2023-02-02T04:51:13.676Z,100432.13
2023-02-02T04:53:41.541Z,100437.69
2023-02-02T04:56:10.862Z,100423.81
2023-02-02T04:58:38.517Z,100421.47
2023-02-02T05:01:10.451Z,100426.31
2023-02-02T05:03:40.161Z,100424.91
2023-02-02T05:06:08.433Z,100417.81
2023-02-02T05:08:36.066Z,100423.69
2023-02-02T05:11:07.707Z,100433.09
2023-02-02T05:13:35.693Z,100438.22
2023-02-02T05:16:03.672Z,100423.53
2023-02-02T05:18:31.509Z,100427.28
2023-02-02T05:21:02.659Z,100432.41
2023-02-02T05:23:30.839Z,100436.97
2023-02-02T05:25:58.581Z,100426.56
2023-02-02T05:28:26.394Z,100437.50
2023-02-02T05:30:53.991Z,100435.41
2023-02-02T05:33:21.575Z,100443.72
2023-02-02T05:35:49.927Z,100451.63
2023-02-02T05:38:18.887Z,100444.00
2023-02-02T05:40:46.471Z,100446.66
2023-02-02T05:43:14.115Z,100447.44
2023-02-02T05:45:41.748Z,100437.31
2023-02-02T05:48:10.544Z,100444.13
2023-02-02T05:50:38.133Z,100448.25
2023-02-02T05:53:05.820Z,100451.44
2023-02-02T05:55:34.717Z,100440.47
2023-02-02T05:58:02.248Z,100461.09
2023-02-02T06:00:29.876Z,100460.06
2023-02-02T06:02:57.459Z,100459.28
2023-02-02T06:05:25.461Z,100466.69
2023-02-02T06:07:53.175Z,100453.81
2023-02-02T06:10:20.843Z,100455.84
2023-02-02T06:12:49.775Z,100468.69
2023-02-02T06:15:17.469Z,100465.38
2023-02-02T06:17:45.133Z,100464.84
2023-02-02T06:20:14.012Z,100465.81
2023-02-02T06:22:42.818Z,100464.59
2023-02-02T06:25:10.941Z,100466.25
2023-02-02T06:27:38.502Z,100477.75
2023-02-02T06:30:08.431Z,100467.66
2023-02-02T06:32:36.043Z,100468.16
2023-02-02T06:35:03.724Z,100451.88
2023-02-02T06:37:31.483Z,100462.53
2023-02-02T06:39:59.066Z,100481.94
2023-02-02T06:42:26.773Z,100461.59
2023-02-02T06:44:54.425Z,100478.34
2023-02-02T06:47:24.519Z,100473.75
2023-02-02T06:49:53.030Z,100469.09
2023-02-02T06:52:20.597Z,100463.81
2023-02-02T06:54:48.180Z,100476.47
2023-02-02T06:57:15.736Z,100473.84
2023-02-02T06:59:43.467Z,100455.41
2023-02-02T07:02:13.309Z,100448.47
2023-02-02T07:04:42.241Z,100479.50
2023-02-02T07:07:10.049Z,100474.34
2023-02-02T07:09:37.746Z,100454.25
2023-02-02T07:12:05.411Z,100436.47
2023-02-02T07:14:32.967Z,100456.69
2023-02-02T07:17:00.564Z,100451.94
2023-02-02T07:19:28.180Z,100450.97
2023-02-02T07:21:57.107Z,100446.44
2023-02-02T07:24:24.646Z,100465.09
2023-02-02T07:26:52.228Z,100468.84
2023-02-02T07:29:19.882Z,100483.28
2023-02-02T07:31:47.599Z,100491.16
2023-02-02T07:34:15.228Z,100489.06
2023-02-02T07:36:42.821Z,100490.97
2023-02-02T07:39:12.926Z,100495.16
2023-02-02T07:41:40.607Z,100501.81
2023-02-02T07:44:08.261Z,100497.06
2023-02-02T07:46:35.870Z,100512.97
2023-02-02T07:49:04.207Z,100518.44
2023-02-02T07:51:31.799Z,100521.66
2023-02-02T07:53:59.492Z,100507.53
2023-02-02T07:56:28.925Z,100512.41
2023-02-02T07:58:57.499Z,100493.00
2023-02-02T08:01:26.594Z,100494.69
2023-02-02T08:03:55.486Z,100489.44
2023-02-02T08:06:24.944Z,100491.09
2023-02-02T08:08:53.022Z,100500.66
2023-02-02T08:11:22.960Z,100510.38
2023-02-02T08:13:53.655Z,100499.44
2023-02-02T08:16:22.144Z,100505.22
2023-02-02T08:18:50.585Z,100501.63
2023-02-02T08:21:19.076Z,100503.31
2023-02-02T08:23:46.903Z,100501.38
2023-02-02T08:26:18.078Z,100488.91
2023-02-02T08:28:48.314Z,100473.56
2023-02-02T08:31:19.631Z,100465.28
2023-02-02T08:33:47.499Z,100487.31
2023-02-02T08:36:17.019Z,100491.63
2023-02-02T08:38:44.903Z,100488.19
2023-02-02T08:41:14.564Z,100519.41
2023-02-02T08:43:43.104Z,100500.84
2023-02-02T08:46:12.401Z,100500.72
2023-02-02T08:48:41.425Z,100503.34
2023-02-02T08:51:11.610Z,100513.47
2023-02-02T08:53:39.703Z,100504.38
2023-02-02T08:56:10.533Z,100524.63
2023-02-02T08:58:38.324Z,100525.16
2023-02-02T09:01:07.809Z,100531.00
2023-02-02T09:03:36.020Z,100532.44
2023-02-02T09:06:10.647Z,100543.66
2023-02-02T09:08:38.512Z,100531.31
2023-02-02T09:11:08.368Z,100533.69
2023-02-02T09:13:36.515Z,100534.78
2023-02-02T09:16:06.702Z,100527.31
2023-02-02T09:18:34.346Z,100521.53
2023-02-02T09:21:02.671Z,100520.56
2023-02-02T09:23:32.690Z,100511.56
2023-02-02T09:26:10.276Z,100513.38
2023-02-02T09:28:39.398Z,100513.13
2023-02-02T09:31:07.690Z,100509.94
2023-02-02T09:33:35.865Z,100515.78
2023-02-02T09:36:08.387Z,100520.50
2023-02-02T09:38:37.833Z,100522.31
2023-02-02T09:41:26.865Z,100529.97
2023-02-02T09:44:05.192Z,100521.22
2023-02-02T09:46:46.450Z,100520.22
2023-02-02T09:49:18.005Z,100520.22
2023-02-02T09:51:50.050Z,100522.75
2023-02-02T09:54:22.265Z,100507.50
2023-02-02T09:56:57.125Z,100533.47
2023-02-02T09:59:28.731Z,100533.88
2023-02-02T10:01:59.561Z,100517.94
2023-02-02T10:04:33.866Z,100525.72
2023-02-02T10:07:09.103Z,100521.53
2023-02-02T10:09:44.362Z,100534.06
2023-02-02T10:12:26.914Z,100533.09
2023-02-02T10:15:00.219Z,100554.63
2023-02-02T10:17:39.957Z,100540.19
2023-02-02T10:20:19.677Z,100534.19
2023-02-02T10:22:48.858Z,100546.66
2023-02-02T10:25:18.686Z,100545.97
2023-02-02T10:27:57.503Z,100548.75
2023-02-02T10:30:35.605Z,100542.50
2023-02-02T10:33:06.770Z,100560.56
2023-02-02T10:35:43.732Z,100571.94
2023-02-02T10:38:24.944Z,100565.16
2023-02-02T10:41:03.109Z,100556.13
2023-02-02T10:43:49.085Z,100567.25
2023-02-02T10:46:23.389Z,100563.06
2023-02-02T10:49:01.589Z,100578.38
2023-02-02T10:51:30.012Z,100579.50
2023-02-02T10:54:01.020Z,100574.94
2023-02-02T10:56:35.514Z,100573.88
2023-02-02T10:59:07.390Z,100575.34
2023-02-02T11:01:34.991Z,100582.84
2023-02-02T11:04:20.129Z,100567.44
2023-02-02T11:06:50.484Z,100580.34
2023-02-02T11:09:22.226Z,100575.59
2023-02-02T11:11:55.510Z,100572.84
2023-02-02T11:14:33.676Z,100547.97
2023-02-02T11:17:05.924Z,100568.81
2023-02-02T11:19:34.928Z,100575.47
2023-02-02T11:22:04.691Z,100580.09
2023-02-02T11:24:45.946Z,100574.94
2023-02-02T11:27:19.021Z,100557.31
2023-02-02T11:29:49.027Z,100583.41
2023-02-02T11:32:26.467Z,100575.47
2023-02-02T11:35:20.867Z,100581.88
2023-02-02T11:38:02.188Z,100577.16
2023-02-02T11:40:33.313Z,100575.78
2023-02-02T11:43:06.014Z,100570.41
2023-02-02T11:45:36.574Z,100569.94
2023-02-02T11:48:08.674Z,100564.81
2023-02-02T11:50:36.792Z,100572.59
2023-02-02T11:53:04.675Z,100572.19
2023-02-02T11:55:33.474Z,100580.41
2023-02-02T11:58:27.277Z,100590.25
2023-02-02T12:01:01.690Z,100590.78
2023-02-02T12:03:33.021Z,100594.16
2023-02-02T12:06:02.928Z,100581.88
2023-02-02T12:08:31.689Z,100598.22
2023-02-02T12:11:02.176Z,100599.31
2023-02-02T12:13:47.261Z,100589.59
2023-02-02T12:16:34.580Z,100588.88
2023-02-02T12:19:20.886Z,100586.09
2023-02-02T12:22:00.463Z,100575.00
2023-02-02T12:24:32.230Z,100573.06
2023-02-02T12:27:14.167Z,100563.59
2023-02-02T12:30:03.810Z,100567.09
2023-02-02T12:32:55.595Z,100568.59
2023-02-02T12:35:38.133Z,100565.00
2023-02-02T12:38:16.410Z,100561.38
2023-02-02T12:40:57.346Z,100569.03
2023-02-02T12:43:34.894Z,100568.88
2023-02-02T12:46:16.332Z,100572.09
2023-02-02T12:49:01.691Z,100566.50
2023-02-02T12:51:44.107Z,100561.97
2023-02-02T12:54:32.830Z,100560.00
2023-02-02T12:57:14.775Z,100552.44
2023-02-02T13:00:02.617Z,100560.56
2023-02-02T13:02:37.836Z,100560.53
2023-02-02T13:05:33.972Z,100552.53
2023-02-02T13:08:09.246Z,100548.63
2023-02-02T13:10:40.644Z,100554.88
2023-02-02T13:13:13.305Z,100543.19
2023-02-02T13:15:45.562Z,100555.69
2023-02-02T13:18:19.648Z,100560.72
2023-02-02T13:20:52.858Z,100567.91
2023-02-02T13:23:27.589Z,100569.19
2023-02-02T13:26:01.284Z,100568.63
2023-02-02T13:28:38.813Z,100572.66
2023-02-02T13:31:17.538Z,100572.53
2023-02-02T13:33:50.752Z,100584.75
2023-02-02T13:36:25.642Z,100575.59
2023-02-02T13:38:56.796Z,100580.59
2023-02-02T13:41:25.460Z,100572.78
2023-02-02T13:44:01.786Z,100575.44
2023-02-02T13:46:36.856Z,100573.22
2023-02-02T13:49:13.253Z,100575.84
2023-02-02T13:51:51.945Z,100568.78
2023-02-02T13:54:53.898Z,100577.53
2023-02-02T13:57:38.311Z,100576.13
2023-02-02T14:00:15.868Z,100581.13
2023-02-02T14:02:47.516Z,100571.41
2023-02-02T14:05:26.830Z,100572.38
2023-02-02T14:08:03.157Z,100577.81
2023-02-02T14:10:35.201Z,100562.09
2023-02-02T14:13:30.359Z,100578.78
2023-02-02T14:15:59.710Z,100575.44
2023-02-02T14:18:55.409Z,100597.81
2023-02-02T14:21:56.388Z,100611.44
2023-02-02T14:24:53.744Z,100589.59
2023-02-02T14:28:02.687Z,100587.25
2023-02-02T14:30:34.121Z,100584.88
2023-02-02T14:33:25.933Z,100592.53
2023-02-02T14:36:01.793Z,100608.53
2023-02-02T14:38:59.187Z,100604.91
2023-02-02T14:42:00.828Z,100605.19
2023-02-02T14:44:30.591Z,100614.91
2023-02-02T14:46:59.192Z,100618.25
2023-02-02T14:49:35.306Z,100617.13
2023-02-02T14:52:05.381Z,100619.22
2023-02-02T14:54:38.701Z,100625.59
2023-02-02T14:57:23.396Z,100630.06
2023-02-02T14:59:52.875Z,100640.34
2023-02-02T15:02:25.201Z,100638.69
2023-02-02T15:04:53.059Z,100649.66
2023-02-02T15:07:55.547Z,100647.16
2023-02-02T15:11:00.642Z,100655.78
2023-02-02T15:13:37.313Z,100648.66
2023-02-02T15:16:10.908Z,100664.19
2023-02-02T15:18:44.697Z,100669.91
2023-02-02T15:21:16.218Z,100675.59
2023-02-02T15:23:46.659Z,100681.84
2023-02-02T15:26:20.426Z,100674.06
2023-02-02T15:28:54.177Z,100668.09
2023-02-02T15:31:30.267Z,100687.66
2023-02-02T15:34:01.072Z,100685.03
2023-02-02T15:36:31.433Z,100691.97
2023-02-02T15:39:02.515Z,100697.38
2023-02-02T15:41:34.750Z,100714.78
2023-02-02T15:44:19.289Z,100701.16
2023-02-02T15:46:48.207Z,100702.09
2023-02-02T15:49:33.892Z,100711.00
2023-02-02T15:52:11.346Z,100725.03
2023-02-02T15:54:39.080Z,100721.13
2023-02-02T15:57:24.947Z,100732.34
2023-02-02T15:59:53.928Z,100717.34
2023-02-02T16:02:27.894Z,100724.97
2023-02-02T16:04:55.530Z,100741.81
2023-02-02T16:07:29.663Z,100759.59
2023-02-02T16:09:57.796Z,100750.16
2023-02-02T16:12:26.120Z,100758.19
2023-02-02T16:14:56.350Z,100776.66
2023-02-02T16:17:28.157Z,100777.28
2023-02-02T16:20:01.151Z,100783.69
2023-02-02T16:22:30.860Z,100800.47
2023-02-02T16:25:02.254Z,100808.81
2023-02-02T16:27:32.624Z,100806.47
2023-02-02T16:30:08.391Z,100800.97
2023-02-02T16:32:38.872Z,100812.09
2023-02-02T16:35:26.161Z,100817.44
2023-02-02T16:37:53.840Z,100812.91
2023-02-02T16:40:27.375Z,100820.72
2023-02-02T16:43:05.312Z,100812.97
2023-02-02T16:45:36.748Z,100806.84
2023-02-02T16:48:28.655Z,100812.81
2023-02-02T16:51:27.864Z,100816.25
2023-02-02T16:54:02.290Z,100808.72
2023-02-02T16:56:33.777Z,100807.28
2023-02-02T16:59:06.903Z,100802.97
2023-02-02T17:01:40.622Z,100813.41
2023-02-02T17:04:19.253Z,100805.16
2023-02-02T17:06:52.843Z,100811.25
2023-02-02T17:09:35.229Z,100817.13
2023-02-02T17:12:09.344Z,100838.59
2023-02-02T17:14:52.592Z,100837.63
2023-02-02T17:17:21.523Z,100834.16
2023-02-02T17:19:49.170Z,100847.59
2023-02-02T17:22:18.365Z,100843.69
2023-02-02T17:24:48.675Z,100849.28
2023-02-02T17:27:23.395Z,100857.56
2023-02-02T17:29:51.340Z,100861.78
2023-02-02T17:32:18.858Z,100868.13
2023-02-02T17:34:47.813Z,100864.78
2023-02-02T17:37:15.436Z,100872.00
2023-02-02T17:39:43.172Z,100866.97
2023-02-02T17:42:21.634Z,100886.75
2023-02-02T17:44:49.183Z,100882.31
2023-02-02T17:49:44.439Z,100885.66
2023-02-02T17:52:13.877Z,100903.97
2023-02-02T17:54:41.458Z,100890.59
2023-02-02T17:57:09.090Z,100883.38
2023-02-02T17:59:36.690Z,100885.81
2023-02-02T18:02:04.819Z,100870.84
2023-02-02T18:04:32.412Z,100865.69
2023-02-02T18:07:00.039Z,100865.56
2023-02-02T18:09:33.860Z,100871.81
2023-02-02T18:12:01.601Z,100847.47
2023-02-02T18:14:29.261Z,100845.56
2023-02-02T18:16:57.023Z,100843.88
2023-02-02T18:19:24.865Z,100841.50
2023-02-02T18:21:52.461Z,100834.44
2023-02-02T18:24:20.013Z,100832.78
2023-02-02T18:26:49.096Z,100852.63
2023-02-02T18:29:16.742Z,100839.34
2023-02-02T18:31:44.344Z,100858.28
2023-02-02T18:34:12.620Z,100841.38
2023-02-02T18:36:40.386Z,100853.97
2023-02-02T18:39:09.644Z,100855.75
2023-02-02T18:41:37.215Z,100850.50
2023-02-02T18:44:06.121Z,100843.44
2023-02-02T18:46:34.395Z,100856.59
2023-02-02T18:49:02.065Z,100853.00
2023-02-02T18:51:31.468Z,100853.00
2023-02-02T18:54:00.323Z,100852.41
2023-02-02T18:56:28.847Z,100846.56
2023-02-02T18:58:56.968Z,100854.34
2023-02-02T19:01:26.629Z,100866.56
2023-02-02T19:03:57.292Z,100859.59
2023-02-02T19:06:42.832Z,100859.59
2023-02-02T19:09:10.584Z,100844.88
2023-02-02T19:11:40.075Z,100854.56
2023-02-02T19:14:14.832Z,100836.97
2023-02-02T19:16:44.893Z,100850.25
2023-02-02T19:19:23.120Z,100846.81
2023-02-02T19:21:54.326Z,100847.88
2023-02-02T19:24:22.058Z,100866.56
2023-02-02T19:26:51.430Z,100870.84
2023-02-02T19:29:22.565Z,100874.47
2023-02-02T19:32:00.652Z,100877.59
2023-02-02T19:34:28.345Z,100882.69
2023-02-02T19:36:56.097Z,100885.34
2023-02-02T19:39:30.860Z,100879.22
2023-02-02T19:42:01.197Z,100895.88
2023-02-02T19:44:33.941Z,100884.50
2023-02-02T19:47:03.834Z,100891.34
2023-02-02T19:49:34.361Z,100885.59
2023-02-02T19:52:03.825Z,100875.19
2023-02-02T19:54:34.745Z,100872.44
2023-02-02T19:57:07.397Z,100876.97
2023-02-02T19:59:36.295Z,100871.22
2023-02-02T20:02:34.458Z,100876.28
2023-02-02T20:05:08.199Z,100881.41
2023-02-02T20:07:35.879Z,100875.78
2023-02-02T20:10:18.631Z,100869.78
2023-02-02T20:12:46.191Z,100862.97
2023-02-02T20:15:25.696Z,100871.47
2023-02-02T20:17:58.236Z,100873.28
2023-02-02T20:20:28.297Z,100873.97
2023-02-02T20:22:57.561Z,100874.81
2023-02-02T20:25:25.130Z,100874.81
2023-02-02T20:27:54.678Z,100879.22
2023-02-02T20:30:26.523Z,100861.91
2023-02-02T20:32:57.988Z,100882.59
2023-02-02T20:35:34.266Z,100908.22
2023-02-02T20:38:02.363Z,100896.03
2023-02-02T20:40:31.449Z,100897.66
2023-02-02T20:42:59.170Z,100909.19
2023-02-02T20:45:28.077Z,100895.28
2023-02-02T20:47:57.034Z,100892.41
2023-02-02T20:50:25.272Z,100884.75
2023-02-02T20:52:54.002Z,100892.78
2023-02-02T20:55:21.721Z,100895.66
2023-02-02T20:57:49.291Z,100904.41
2023-02-02T21:00:21.336Z,100898.16
2023-02-02T21:02:49.106Z,100903.41
2023-02-02T21:05:18.185Z,100905.38
2023-02-02T21:07:45.808Z,100896.97
2023-02-02T21:10:13.442Z,100900.78
2023-02-02T21:12:41.006Z,100899.13
2023-02-02T21:15:09.650Z,100899.13
2023-02-02T21:17:37.234Z,100891.34
2023-02-02T21:20:05.160Z,100878.19
2023-02-02T21:22:35.795Z,100892.41
2023-02-02T21:25:03.397Z,100891.94
2023-02-02T21:27:31.152Z,100901.50
2023-02-02T21:29:59.014Z,100904.88
2023-02-02T21:32:26.634Z,100902.34
2023-02-02T21:34:54.191Z,100910.38
2023-02-02T21:37:21.802Z,100897.47
2023-02-02T21:39:51.701Z,100915.06
2023-02-02T21:42:22.210Z,100911.69
2023-02-02T21:44:54.177Z,100910.16
2023-02-02T21:47:29.714Z,100923.06
2023-02-02T21:50:00.182Z,100907.88
2023-02-02T21:52:33.550Z,100915.03
2023-02-02T21:55:29.125Z,100912.91
2023-02-02T21:57:59.155Z,100904.88
2023-02-02T22:00:30.824Z,100915.78
2023-02-02T22:02:59.725Z,100916.84
2023-02-02T22:05:34.287Z,100915.03
2023-02-02T22:08:08.366Z,100918.41
2023-02-02T22:10:39.678Z,100903.78
2023-02-02T22:13:17.338Z,100901.88
2023-02-02T22:15:47.319Z,100907.88
2023-02-02T22:18:18.022Z,100919.59
2023-02-02T22:20:47.355Z,100910.53
2023-02-02T22:23:17.143Z,100912.06
2023-02-02T22:25:47.751Z,100906.91
2023-02-02T22:28:20.870Z,100901.78
2023-02-02T22:30:48.965Z,100898.41
2023-02-02T22:33:16.739Z,100885.97
2023-02-02T22:35:44.677Z,100892.66
2023-02-02T22:38:17.229Z,100876.13
2023-02-02T22:40:46.584Z,100879.13
2023-02-02T22:43:16.183Z,100877.91
2023-02-02T22:45:44.153Z,100893.88
2023-02-02T22:48:12.193Z,100880.19
2023-02-02T22:50:39.851Z,100888.84
2023-02-02T22:53:07.548Z,100879.38
2023-02-02T22:55:36.052Z,100888.72
2023-02-02T22:58:05.016Z,100882.63
2023-02-02T23:00:33.634Z,100892.06
2023-02-02T23:03:01.370Z,100889.78
2023-02-02T23:05:29.255Z,100899.47
2023-02-02T23:07:56.874Z,100902.72
2023-02-02T23:10:27.492Z,100913.97
2023-02-02T23:12:58.489Z,100915.63
2023-02-02T23:15:27.957Z,100926.91
2023-02-02T23:17:55.962Z,100926.91
2023-02-02T23:20:23.586Z,100924.16
2023-02-02T23:22:51.210Z,100928.81
2023-02-02T23:25:19.268Z,100934.69
2023-02-02T23:27:47.004Z,100928.59
2023-02-02T23:30:15.807Z,100939.13
2023-02-02T23:32:44.772Z,100926.66
2023-02-02T23:35:12.399Z,100939.13
2023-02-02T23:37:39.959Z,100931.69
2023-02-02T23:40:08.824Z,100948.44
2023-02-02T23:42:37.509Z,100934.78
2023-02-02T23:45:05.751Z,100940.19
2023-02-02T23:47:33.910Z,100936.00
2023-02-02T23:50:06.786Z,100933.97
2023-02-02T23:52:35.618Z,100914.81
2023-02-02T23:55:03.945Z,100919.25
2023-02-02T23:57:33.557Z,100910.25
